createdAt,value
2023-04-02T00:02:34.054Z,98369.97
2023-04-02T00:06:45.030Z,98376.38
2023-04-02T00:10:49.557Z,98389.69
2023-04-02T00:14:54.587Z,98383.91
2023-04-02T00:19:03.289Z,98393.34
2023-04-02T00:23:07.013Z,98402.09
2023-04-02T00:27:11.887Z,98394.34
2023-04-02T00:31:14.993Z,98405.25
2023-04-02T00:35:22.525Z,98401.50
2023-04-02T00:39:26.383Z,98399.94
2023-04-02T00:43:30.655Z,98405.16
2023-04-02T00:47:35.063Z,98403.38
2023-04-02T00:51:43.524Z,98394.63
2023-04-02T00:55:46.412Z,98405.13
2023-04-02T00:59:55.171Z,98400.91
2023-04-02T01:04:01.543Z,98411.19
2023-04-02T01:08:11.021Z,98402.25
2023-04-02T01:12:30.809Z,98401.38
2023-04-02T01:16:43.021Z,98406.91
2023-04-02T01:21:07.859Z,98422.72
2023-04-02T01:25:15.663Z,98417.56
2023-04-02T01:29:22.144Z,98419.63
2023-04-02T01:33:27.122Z,98408.16
2023-04-02T01:37:39.074Z,98430.41
2023-04-02T01:41:46.403Z,98429.53
2023-04-02T01:45:50.823Z,98428.47
2023-04-02T01:49:55.125Z,98429.81
2023-04-02T01:54:00.701Z,98435.94
2023-04-02T01:58:04.821Z,98433.78
2023-04-02T02:02:12.550Z,98436.81
2023-04-02T02:06:17.110Z,98440.75
2023-04-02T02:10:25.188Z,98440.13
2023-04-02T02:14:29.279Z,98441.44
2023-04-02T02:18:33.939Z,98447.06
2023-04-02T02:22:38.983Z,98447.06
2023-04-02T02:26:43.159Z,98450.47
2023-04-02T02:30:48.029Z,98454.13
2023-04-02T02:34:57.440Z,98467.50
2023-04-02T02:39:05.140Z,98462.72
2023-04-02T02:43:11.595Z,98474.09
2023-04-02T02:47:16.701Z,98474.09
2023-04-02T02:51:24.461Z,98466.16
2023-04-02T02:55:29.930Z,98470.56
2023-04-02T02:59:32.971Z,98476.63
2023-04-02T03:03:36.437Z,98475.81
2023-04-02T03:07:41.154Z,98481.75
2023-04-02T03:11:48.600Z,98488.06
2023-04-02T03:15:57.002Z,98484.69
2023-04-02T03:20:06.480Z,98487.50
2023-04-02T03:24:14.672Z,98489.53
2023-04-02T03:28:20.461Z,98500.19
2023-04-02T03:32:25.171Z,98504.84
2023-04-02T03:36:30.456Z,98510.91
2023-04-02T03:40:37.101Z,98510.66
2023-04-02T03:44:45.700Z,98523.56
2023-04-02T03:48:50.972Z,98523.81
2023-04-02T03:52:54.059Z,98535.16
2023-04-02T03:56:58.599Z,98541.47
2023-04-02T04:01:05.815Z,98545.34
2023-04-02T04:05:23.336Z,98545.69
2023-04-02T04:09:28.407Z,98539.72
2023-04-02T04:13:36.963Z,98544.81
2023-04-02T04:17:51.634Z,98555.94
2023-04-02T04:21:57.192Z,98549.28
2023-04-02T04:26:09.834Z,98558.03
2023-04-02T04:30:20.972Z,98566.75
2023-04-02T04:34:26.630Z,98568.75
2023-04-02T04:38:33.029Z,98572.50
2023-04-02T04:42:37.686Z,98571.88
2023-04-02T04:46:44.011Z,98583.88
2023-04-02T04:50:49.910Z,98592.25
2023-04-02T04:54:52.963Z,98598.97
2023-04-02T04:59:01.674Z,98605.34
2023-04-02T05:03:09.738Z,98620.94
2023-04-02T05:07:15.735Z,98616.41
2023-04-02T05:11:25.475Z,98616.22
2023-04-02T05:15:30.727Z,98623.75
2023-04-02T05:19:38.253Z,98635.81
2023-04-02T05:23:47.084Z,98635.50
2023-04-02T05:27:53.589Z,98636.22
2023-04-02T05:32:00.917Z,98633.25
2023-04-02T05:36:07.291Z,98655.13
2023-04-02T05:40:15.644Z,98650.97
2023-04-02T05:44:22.080Z,98661.78
2023-04-02T05:48:29.088Z,98665.94
2023-04-02T05:52:37.077Z,98677.25
2023-04-02T05:56:44.021Z,98676.34
2023-04-02T06:00:55.378Z,98675.22
2023-04-02T06:05:01.252Z,98685.63
2023-04-02T06:09:11.112Z,98692.06
2023-04-02T06:13:16.999Z,98697.50
2023-04-02T06:17:21.422Z,98698.53
2023-04-02T06:21:24.165Z,98711.97
2023-04-02T06:25:30.553Z,98718.94
2023-04-02T06:29:39.657Z,98722.78
2023-04-02T06:33:42.489Z,98726.97
2023-04-02T06:37:47.328Z,98727.63
2023-04-02T06:41:57.897Z,98729.88
2023-04-02T06:46:03.237Z,98746.28
2023-04-02T06:50:11.430Z,98751.34
2023-04-02T06:54:15.483Z,98756.72
2023-04-02T06:58:20.973Z,98764.09
2023-04-02T07:02:31.268Z,98773.19
2023-04-02T07:06:34.075Z,98778.56
2023-04-02T07:10:37.179Z,98787.28
2023-04-02T07:14:41.360Z,98797.78
2023-04-02T07:18:44.422Z,98802.44
2023-04-02T07:22:47.128Z,98802.59
2023-04-02T07:26:49.763Z,98829.72
2023-04-02T07:30:55.149Z,98836.28
2023-04-02T07:34:57.812Z,98844.97
2023-04-02T07:39:00.886Z,98844.50
2023-04-02T07:43:03.609Z,98853.59
2023-04-02T07:47:08.631Z,98862.19
2023-04-02T07:51:19.455Z,98861.03
2023-04-02T07:55:22.149Z,98869.78
2023-04-02T07:59:24.900Z,98871.38
2023-04-02T08:03:29.588Z,98877.47
2023-04-02T08:07:32.411Z,98883.16
2023-04-02T08:11:35.083Z,98887.13
2023-04-02T08:15:38.025Z,98890.34
2023-04-02T08:19:54.046Z,98908.31
2023-04-02T08:23:57.565Z,98914.56
2023-04-02T08:28:01.576Z,98919.31
2023-04-02T08:32:04.378Z,98919.84
2023-04-02T08:36:08.821Z,98926.50
2023-04-02T08:40:22.121Z,98939.06
2023-04-02T08:44:33.804Z,98945.44
2023-04-02T08:48:40.738Z,98955.03
2023-04-02T08:52:46.641Z,98956.78
2023-04-02T08:56:53.430Z,98965.59
2023-04-02T09:00:57.210Z,98973.38
2023-04-02T09:04:59.908Z,98982.25
2023-04-02T09:09:05.050Z,98988.03
2023-04-02T09:13:15.172Z,98992.06
2023-04-02T09:17:19.450Z,98997.63
2023-04-02T09:21:34.606Z,99003.34
2023-04-02T09:25:48.449Z,99006.72
2023-04-02T09:30:01.144Z,99019.63
2023-04-02T09:34:30.847Z,99028.13
2023-04-02T09:38:35.281Z,99035.75
2023-04-02T09:42:39.305Z,99039.72
2023-04-02T09:46:53.234Z,99055.59
2023-04-02T09:51:11.268Z,99056.31
2023-04-02T09:55:22.950Z,99059.25
2023-04-02T09:59:27.047Z,99069.78
2023-04-02T10:03:30.958Z,99078.56
2023-04-02T10:07:35.596Z,99069.94
2023-04-02T10:11:46.251Z,99079.41
2023-04-02T10:15:54.689Z,99077.47
2023-04-02T10:20:00.470Z,99103.03
2023-04-02T10:24:03.964Z,99100.91
2023-04-02T10:28:08.401Z,99110.25
2023-04-02T10:32:15.825Z,99117.16
2023-04-02T10:36:27.175Z,99124.97
2023-04-02T10:40:32.130Z,99129.00
2023-04-02T10:44:40.932Z,99127.41
2023-04-02T10:48:52.462Z,99101.03
2023-04-02T10:53:00.398Z,99138.59
2023-04-02T10:57:08.008Z,99151.56
2023-04-02T11:01:13.989Z,99154.00
2023-04-02T11:05:23.618Z,99162.53
2023-04-02T11:09:27.833Z,99168.50
2023-04-02T11:13:33.484Z,99169.59
2023-04-02T11:17:36.266Z,99170.66
2023-04-02T11:21:54.973Z,99173.75
2023-04-02T11:26:50.086Z,99192.31
2023-04-02T11:30:52.923Z,99186.91
2023-04-02T11:35:07.529Z,99197.22
2023-04-02T11:39:17.450Z,99198.50
2023-04-02T11:43:49.391Z,99201.38
2023-04-02T11:48:29.508Z,99212.16
2023-04-02T11:52:35.513Z,99219.38
2023-04-02T11:56:45.011Z,99233.03
2023-04-02T12:01:14.897Z,99230.34
2023-04-02T12:05:23.010Z,99241.31
2023-04-02T12:09:27.228Z,99235.69
2023-04-02T12:13:54.185Z,99247.38
2023-04-02T12:18:06.376Z,99251.69
2023-04-02T12:22:17.677Z,99259.06
2023-04-02T12:26:37.266Z,99271.50
2023-04-02T12:30:42.398Z,99277.81
2023-04-02T12:34:46.453Z,99285.00
2023-04-02T12:38:51.198Z,99288.47
2023-04-02T12:42:54.173Z,99305.13
2023-04-02T12:46:59.435Z,99300.22
2023-04-02T12:51:02.924Z,99311.34
2023-04-02T12:55:06.622Z,99317.47
2023-04-02T12:59:19.751Z,99326.34
2023-04-02T13:03:23.888Z,99337.13
2023-04-02T13:07:27.808Z,99340.31
2023-04-02T13:11:41.267Z,99337.03
2023-04-02T13:15:44.030Z,99342.25
2023-04-02T13:19:48.477Z,99342.16
2023-04-02T13:23:51.178Z,99349.53
2023-04-02T13:27:54.668Z,99359.63
2023-04-02T13:31:59.439Z,99364.13
2023-04-02T13:36:03.556Z,99378.56
2023-04-02T13:40:09.188Z,99376.22
2023-04-02T13:44:20.231Z,99381.03
2023-04-02T13:48:26.137Z,99386.56
2023-04-02T13:52:30.388Z,99398.22
2023-04-02T13:56:33.346Z,99403.34
2023-04-02T14:00:37.663Z,99409.94
2023-04-02T14:04:42.649Z,99420.34
2023-04-02T14:08:55.915Z,99429.69
2023-04-02T14:13:15.941Z,99439.09
2023-04-02T14:17:24.901Z,99436.16
2023-04-02T14:21:35.729Z,99443.25
2023-04-02T14:25:44.258Z,99459.94
2023-04-02T14:29:49.695Z,99461.50
2023-04-02T14:33:58.595Z,99468.50
2023-04-02T14:38:09.578Z,99470.56
2023-04-02T14:42:16.642Z,99485.41
2023-04-02T14:46:19.400Z,99496.88
2023-04-02T14:50:27.956Z,99497.09
2023-04-02T14:54:33.279Z,99497.97
2023-04-02T14:58:39.879Z,99508.34
2023-04-02T15:02:46.950Z,99505.28
2023-04-02T15:06:52.473Z,99519.31
2023-04-02T15:11:05.695Z,99524.97
2023-04-02T15:15:29.805Z,99531.13
2023-04-02T15:19:36.164Z,99543.84
2023-04-02T15:23:47.104Z,99544.28
2023-04-02T15:27:59.384Z,99552.09
2023-04-02T15:32:08.300Z,99544.50
2023-04-02T15:36:38.409Z,99547.78
2023-04-02T15:40:55.590Z,99559.56
2023-04-02T15:45:19.970Z,99560.28
2023-04-02T15:49:36.981Z,99568.41
2023-04-02T15:53:48.251Z,99580.88
2023-04-02T15:58:14.438Z,99586.81
2023-04-02T16:03:02.716Z,99590.41
2023-04-02T16:07:29.554Z,99593.31
2023-04-02T16:11:33.579Z,99603.03
2023-04-02T16:15:38.604Z,99605.16
2023-04-02T16:19:43.509Z,99600.47
2023-04-02T16:23:47.857Z,99614.31
2023-04-02T16:27:55.397Z,99622.47
2023-04-02T16:32:02.392Z,99624.50
2023-04-02T16:36:15.036Z,99624.84
2023-04-02T16:40:30.983Z,99638.69
2023-04-02T16:44:45.741Z,99642.19
2023-04-02T16:48:52.934Z,99659.19
2023-04-02T16:53:00.920Z,99665.47
2023-04-02T16:57:17.342Z,99672.16
2023-04-02T17:01:21.873Z,99681.06
2023-04-02T17:05:32.468Z,99690.63
2023-04-02T17:09:41.149Z,99690.88
2023-04-02T17:13:47.998Z,99700.13
2023-04-02T17:17:50.941Z,99702.00
2023-04-02T17:21:56.070Z,99722.78
2023-04-02T17:26:03.453Z,99721.41
2023-04-02T17:30:14.727Z,99720.38
2023-04-02T17:34:20.872Z,99731.50
2023-04-02T17:38:28.380Z,99738.13
2023-04-02T17:42:40.916Z,99751.28
2023-04-02T17:46:49.094Z,99760.56
2023-04-02T17:51:03.306Z,99766.88
2023-04-02T17:55:17.323Z,99760.81
2023-04-02T17:59:28.738Z,99779.19
2023-04-02T18:03:51.254Z,99783.22
2023-04-02T18:07:59.796Z,99793.31
2023-04-02T18:12:11.812Z,99799.19
2023-04-02T18:16:19.663Z,99810.50
2023-04-02T18:20:30.022Z,99818.19
2023-04-02T18:24:42.757Z,99825.63
2023-04-02T18:28:52.521Z,99822.22
2023-04-02T18:33:05.483Z,99841.41
2023-04-02T18:37:27.101Z,99841.00
2023-04-02T18:41:44.180Z,99853.72
2023-04-02T18:45:57.740Z,99869.03
2023-04-02T18:50:12.717Z,99878.34
2023-04-02T18:54:21.884Z,99877.31
2023-04-02T18:58:28.645Z,99895.50
2023-04-02T19:02:42.294Z,99902.31
2023-04-02T19:06:46.716Z,99912.19
2023-04-02T19:10:54.456Z,99912.84
2023-04-02T19:14:59.597Z,99925.31
2023-04-02T19:19:08.484Z,99936.63
2023-04-02T19:23:25.675Z,99932.56
2023-04-02T19:27:33.494Z,99943.22
2023-04-02T19:31:48.276Z,99917.88
2023-04-02T19:35:55.285Z,99956.88
2023-04-02T19:40:09.438Z,99966.09
2023-04-02T19:44:14.549Z,99985.81
2023-04-02T19:48:20.615Z,99987.53
2023-04-02T19:52:23.635Z,99993.41
2023-04-02T19:56:27.955Z,99988.69
2023-04-02T20:00:32.960Z,100002.97
2023-04-02T20:04:35.861Z,100008.00
2023-04-02T20:08:39.080Z,100007.53
2023-04-02T20:12:42.153Z,100017.66
2023-04-02T20:16:46.804Z,100020.59
2023-04-02T20:20:50.376Z,100025.78
2023-04-02T20:24:54.951Z,100032.06
2023-04-02T20:28:58.001Z,100036.13
2023-04-02T20:33:02.434Z,100042.56
2023-04-02T20:37:05.569Z,100058.84
2023-04-02T20:41:09.514Z,100061.38
2023-04-02T20:45:12.879Z,100062.28
2023-04-02T20:49:17.619Z,100071.50
2023-04-02T20:53:20.965Z,100065.38
2023-04-02T20:57:26.184Z,100080.91
2023-04-02T21:01:31.022Z,100074.78
2023-04-02T21:05:35.415Z,100081.56
2023-04-02T21:09:38.342Z,100086.81
2023-04-02T21:13:44.221Z,100079.25
2023-04-02T21:17:47.457Z,100102.44
2023-04-02T21:21:51.793Z,100101.97
2023-04-02T21:25:59.570Z,100101.19
2023-04-02T21:30:02.485Z,100112.94
2023-04-02T21:34:06.549Z,100124.75
2023-04-02T21:38:10.996Z,100127.28
2023-04-02T21:42:14.541Z,100130.72
2023-04-02T21:46:19.073Z,100135.50
2023-04-02T21:50:21.993Z,100127.03
2023-04-02T21:54:26.606Z,100121.78
2023-04-02T21:58:29.521Z,100120.16
2023-04-02T22:02:32.423Z,100125.28
2023-04-02T22:06:38.661Z,100129.91
2023-04-02T22:10:43.358Z,100128.75
2023-04-02T22:14:46.422Z,100131.00
2023-04-02T22:18:50.390Z,100124.16
2023-04-02T22:22:53.431Z,100129.19
2023-04-02T22:26:57.751Z,100133.63
2023-04-02T22:31:04.741Z,100129.38
2023-04-02T22:35:07.873Z,100134.63
2023-04-02T22:39:12.623Z,100124.88
2023-04-02T22:43:17.024Z,100132.78
2023-04-02T22:47:20.131Z,100141.63
2023-04-02T22:51:24.854Z,100138.22
2023-04-02T22:55:27.927Z,100143.34
2023-04-02T22:59:32.224Z,100153.09
2023-04-02T23:03:35.580Z,100159.66
2023-04-02T23:07:38.513Z,100158.97
2023-04-02T23:11:41.434Z,100158.16
2023-04-02T23:15:46.621Z,100167.34
2023-04-02T23:19:49.445Z,100152.38
2023-04-02T23:23:52.590Z,100164.28
2023-04-02T23:27:55.667Z,100157.41
2023-04-02T23:32:01.057Z,100152.66
2023-04-02T23:36:08.835Z,100153.72
2023-04-02T23:40:12.184Z,100159.31
2023-04-02T23:44:15.036Z,100150.75
2023-04-02T23:48:19.503Z,100161.84
2023-04-02T23:52:22.468Z,100157.75
2023-04-02T23:56:26.062Z,100163.34
